Time;durP1;ratioP1;P1;durP2;ratioP2;P2;SDS_P1;SDS_P2;PMS_P1;PMS_P2;Temp;Humidity;BMP_temperature;BMP_pressure;BME280_temperature;BME280_humidity;BME280_pressure;Samples;Min_cycle;Max_cycle;Signal;HPM_P1;HPM_P2
2022/04/03 00:00:05;;;;;;;12.52;5.82;;;1.60;99.90;;;;;;4975401;28;20038;-55
2022/04/03 00:02:32;;;;;;;15.07;5.78;;;1.70;99.90;;;;;;4987188;28;20150;-55
2022/04/03 00:04:59;;;;;;;17.08;5.93;;;1.60;99.90;;;;;;4979382;28;20093;-53
2022/04/03 00:07:26;;;;;;;13.20;5.53;;;1.50;99.90;;;;;;4988071;28;20069;-55
2022/04/03 00:09:53;;;;;;;11.77;5.63;;;1.50;99.90;;;;;;4980217;28;20113;-56
2022/04/03 00:12:20;;;;;;;13.93;6.53;;;1.60;99.90;;;;;;4969328;28;20137;-56
2022/04/03 00:14:46;;;;;;;11.70;5.63;;;1.50;99.90;;;;;;4976459;28;20133;-52
2022/04/03 00:17:13;;;;;;;13.32;6.75;;;1.50;99.90;;;;;;4988062;28;20813;-56
2022/04/03 00:19:40;;;;;;;13.63;6.05;;;1.40;99.90;;;;;;4981272;28;20490;-56
2022/04/03 00:22:07;;;;;;;19.80;6.28;;;1.40;99.90;;;;;;4968104;28;20081;-56
2022/04/03 00:24:34;;;;;;;17.33;5.47;;;1.40;99.90;;;;;;4966805;28;20093;-55
2022/04/03 00:27:01;;;;;;;17.45;6.68;;;1.40;99.90;;;;;;4968030;28;20047;-54
2022/04/03 00:29:28;;;;;;;9.52;5.43;;;1.40;99.90;;;;;;4972184;28;20473;-55
2022/04/03 00:31:55;;;;;;;12.45;5.50;;;1.50;99.90;;;;;;4977534;28;20461;-56
2022/04/03 00:34:23;;;;;;;11.38;5.47;;;1.30;99.90;;;;;;4975094;28;20053;-56
2022/04/03 00:36:54;;;;;;;10.82;5.57;;;1.30;99.90;;;;;;4984129;28;20105;-58
2022/04/03 00:39:21;;;;;;;13.75;6.13;;;1.30;99.90;;;;;;4985328;28;20129;-56
2022/04/03 00:41:47;;;;;;;10.52;5.20;;;1.20;99.90;;;;;;4976310;28;20074;-60
2022/04/03 00:44:14;;;;;;;11.68;5.53;;;1.20;99.90;;;;;;4973936;28;20106;-55
2022/04/03 00:46:41;;;;;;;10.88;5.60;;;1.20;99.90;;;;;;4979745;28;20558;-55
2022/04/03 00:49:08;;;;;;;13.23;4.93;;;1.20;99.90;;;;;;4989006;28;20093;-60
2022/04/03 00:51:35;;;;;;;12.60;5.32;;;1.20;99.90;;;;;;4978543;28;20077;-54
2022/04/03 00:54:02;;;;;;;12.05;5.40;;;1.10;99.90;;;;;;4988785;28;20131;-51
2022/04/03 00:56:30;;;;;;;10.85;4.32;;;1.10;99.90;;;;;;4988693;28;20050;-54
2022/04/03 00:58:57;;;;;;;13.82;5.03;;;1.10;99.90;;;;;;4987178;28;20054;-54
2022/04/03 01:01:24;;;;;;;9.18;4.45;;;1.00;99.90;;;;;;4971449;28;20121;-55
2022/04/03 01:03:51;;;;;;;8.82;4.55;;;1.00;99.90;;;;;;4989338;28;20050;-59
2022/04/03 01:06:17;;;;;;;16.52;5.05;;;1.00;99.90;;;;;;4989237;28;20085;-56
2022/04/03 01:08:44;;;;;;;9.50;4.45;;;1.00;99.90;;;;;;4988949;28;20129;-54
2022/04/03 01:11:20;;;;;;;11.07;4.65;;;0.90;99.90;;;;;;4994061;28;20046;-52
2022/04/03 01:13:48;;;;;;;7.03;4.03;;;0.90;99.90;;;;;;4988862;28;20128;-54
2022/04/03 01:16:15;;;;;;;8.82;3.70;;;0.90;99.90;;;;;;4928656;28;1452351;-54
2022/04/03 01:18:42;;;;;;;10.00;4.38;;;0.90;99.90;;;;;;4988888;28;20060;-52
2022/04/03 01:21:09;;;;;;;8.57;4.53;;;0.80;99.90;;;;;;4972082;28;20073;-54
2022/04/03 01:23:36;;;;;;;17.25;5.07;;;0.80;99.90;;;;;;4972370;28;20134;-54
2022/04/03 01:26:03;;;;;;;14.95;5.88;;;0.80;99.90;;;;;;4963536;28;20085;-56
2022/04/03 01:28:29;;;;;;;11.10;5.80;;;0.80;99.90;;;;;;4974715;28;20042;-55
2022/04/03 01:30:56;;;;;;;9.30;4.32;;;0.90;99.90;;;;;;4973700;28;20133;-54
2022/04/03 01:33:23;;;;;;;13.52;4.25;;;0.80;99.90;;;;;;4988526;28;20092;-54
2022/04/03 01:35:50;;;;;;;9.48;5.35;;;0.80;99.90;;;;;;4987492;28;20507;-55
2022/04/03 01:38:17;;;;;;;11.98;4.40;;;0.70;99.90;;;;;;4979055;28;20167;-54
2022/04/03 01:40:44;;;;;;;13.98;4.07;;;0.70;99.90;;;;;;4972516;28;20104;-52
2022/04/03 01:43:11;;;;;;;7.97;4.03;;;0.70;99.90;;;;;;4977608;28;20038;-53
2022/04/03 01:45:38;;;;;;;9.50;4.40;;;0.70;99.90;;;;;;4987481;28;20137;-55
2022/04/03 01:48:06;;;;;;;9.70;3.85;;;0.60;99.90;;;;;;4980287;28;20097;-53
2022/04/03 01:50:33;;;;;;;16.05;4.50;;;0.70;99.90;;;;;;4969533;28;20056;-55
2022/04/03 01:53:00;;;;;;;18.40;4.63;;;0.60;99.90;;;;;;4627756;28;10000411;-54
2022/04/03 01:55:27;;;;;;;11.10;4.20;;;0.60;99.90;;;;;;4966243;28;20093;-53
2022/04/03 01:57:54;;;;;;;8.82;4.18;;;0.60;99.90;;;;;;4967589;28;20055;-54
2022/04/03 02:00:21;;;;;;;15.95;4.22;;;0.60;99.90;;;;;;4988585;28;20089;-55
2022/04/03 02:02:50;;;;;;;15.25;5.10;;;0.60;99.90;;;;;;4973127;28;20478;-53
2022/04/03 02:05:17;;;;;;;8.52;3.75;;;0.60;99.90;;;;;;4969247;28;20569;-55
2022/04/03 02:07:44;;;;;;;11.30;5.28;;;0.50;99.90;;;;;;4968795;28;20466;-52
2022/04/03 02:10:12;;;;;;;8.35;4.38;;;0.60;99.90;;;;;;4969545;28;20138;-54
2022/04/03 02:12:39;;;;;;;14.98;3.88;;;0.50;99.90;;;;;;4969143;28;20051;-55
2022/04/03 02:15:07;;;;;;;13.48;4.10;;;0.40;99.90;;;;;;4969257;28;20121;-51
2022/04/03 02:17:34;;;;;;;9.02;4.53;;;0.50;99.90;;;;;;4971974;28;20604;-56
2022/04/03 02:20:01;;;;;;;10.60;4.03;;;0.40;99.90;;;;;;4993495;28;20078;-59
2022/04/03 02:22:27;;;;;;;11.38;3.85;;;0.40;99.90;;;;;;4972877;28;20077;-54
2022/04/03 02:24:54;;;;;;;12.20;4.50;;;0.40;99.90;;;;;;4979517;28;20050;-52
2022/04/03 02:27:22;;;;;;;10.45;4.45;;;0.40;99.90;;;;;;4984354;28;20058;-56
2022/04/03 02:29:48;;;;;;;9.38;5.45;;;0.40;99.90;;;;;;4979782;28;20557;-52
2022/04/03 02:32:16;;;;;;;11.32;4.28;;;0.30;99.90;;;;;;4976130;28;20051;-54
2022/04/03 02:34:43;;;;;;;13.85;4.82;;;0.30;99.90;;;;;;4979876;28;20129;-55
2022/04/03 02:37:11;;;;;;;8.55;4.20;;;0.30;99.90;;;;;;4951995;28;20058;-56
2022/04/03 02:39:38;;;;;;;14.10;4.18;;;0.40;99.90;;;;;;4970254;28;20541;-56
2022/04/03 02:42:05;;;;;;;9.73;3.58;;;0.30;99.90;;;;;;4987792;28;20145;-58
2022/04/03 02:44:31;;;;;;;9.35;3.97;;;0.30;99.90;;;;;;4982295;28;20101;-51
2022/04/03 02:46:58;;;;;;;13.60;4.75;;;0.40;99.90;;;;;;4968706;28;20138;-54
2022/04/03 02:49:25;;;;;;;7.10;4.03;;;0.30;99.90;;;;;;4971543;28;20074;-56
2022/04/03 02:51:52;;;;;;;14.23;4.30;;;0.30;99.90;;;;;;4968724;28;20066;-55
2022/04/03 02:54:19;;;;;;;12.77;4.80;;;0.20;99.90;;;;;;4968188;28;20077;-56
2022/04/03 02:56:46;;;;;;;9.95;3.88;;;0.30;99.90;;;;;;4968572;28;20086;-54
2022/04/03 02:59:13;;;;;;;9.35;4.60;;;0.20;99.90;;;;;;4969462;28;20074;-53
2022/04/03 03:01:41;;;;;;;13.07;4.30;;;0.10;99.90;;;;;;4986460;28;20494;-52
2022/04/03 03:04:08;;;;;;;12.88;4.45;;;0.10;99.90;;;;;;4986513;28;20058;-55
2022/04/03 03:06:34;;;;;;;9.95;3.83;;;0.10;99.90;;;;;;4974886;28;20078;-56
2022/04/03 03:09:01;;;;;;;16.90;3.80;;;0.10;99.90;;;;;;4972350;28;20038;-54
2022/04/03 03:11:28;;;;;;;10.88;4.10;;;0.00;99.90;;;;;;4978853;28;20058;-55
2022/04/03 03:13:55;;;;;;;9.77;4.13;;;0.00;99.90;;;;;;4970500;28;20129;-56
2022/04/03 03:16:22;;;;;;;12.38;4.82;;;0.00;99.90;;;;;;4976664;28;20054;-55
2022/04/03 03:18:49;;;;;;;13.68;4.55;;;0.00;99.90;;;;;;4985943;28;20050;-55
2022/04/03 03:21:16;;;;;;;17.77;5.10;;;-0.10;99.90;;;;;;4979193;28;20098;-53
2022/04/03 03:23:42;;;;;;;17.60;5.18;;;-0.30;99.90;;;;;;4968357;28;20051;-55
2022/04/03 03:26:09;;;;;;;11.45;6.53;;;-0.20;99.90;;;;;;4976079;28;20061;-53
2022/04/03 03:28:36;;;;;;;8.70;4.13;;;-0.20;99.90;;;;;;4988473;28;20082;-54
2022/04/03 03:31:03;;;;;;;10.27;3.83;;;-0.20;99.90;;;;;;4985161;28;20074;-53
2022/04/03 03:33:30;;;;;;;10.02;4.45;;;-0.20;99.90;;;;;;4972749;28;20081;-55
2022/04/03 03:35:57;;;;;;;9.70;4.70;;;-0.10;99.90;;;;;;4986752;28;20138;-55
2022/04/03 03:38:23;;;;;;;10.40;4.15;;;-0.10;99.90;;;;;;4971973;28;20629;-54
2022/04/03 03:40:50;;;;;;;9.98;4.13;;;-0.10;99.90;;;;;;4975421;28;20743;-56
2022/04/03 03:43:17;;;;;;;10.52;5.43;;;-0.10;99.90;;;;;;4988343;28;20050;-55
2022/04/03 03:45:44;;;;;;;10.65;3.85;;;-0.20;99.90;;;;;;4986698;28;20145;-54
2022/04/03 03:48:11;;;;;;;13.85;4.25;;;-0.20;99.90;;;;;;4976057;28;20050;-53
2022/04/03 03:50:38;;;;;;;15.75;3.78;;;-0.20;99.90;;;;;;4971368;28;20512;-54
2022/04/03 03:53:04;;;;;;;8.75;3.25;;;-0.20;99.90;;;;;;4954294;28;20482;-55
2022/04/03 03:55:31;;;;;;;15.10;4.70;;;-0.20;99.90;;;;;;4975307;28;20501;-54
2022/04/03 03:57:58;;;;;;;12.10;4.00;;;-0.20;99.90;;;;;;4981389;28;20158;-54
2022/04/03 04:00:25;;;;;;;12.05;3.97;;;-0.30;99.90;;;;;;4986294;28;20085;-55
2022/04/03 04:02:52;;;;;;;14.70;4.68;;;-0.10;99.90;;;;;;4985230;28;20078;-59
2022/04/03 04:05:18;;;;;;;11.23;3.92;;;-0.20;99.90;;;;;;4987712;28;20108;-53
2022/04/03 04:07:46;;;;;;;11.90;3.92;;;0.10;99.90;;;;;;4971200;28;20469;-55
2022/04/03 04:10:13;;;;;;;7.63;3.50;;;-0.20;99.90;;;;;;4971207;28;20129;-53
2022/04/03 04:12:41;;;;;;;9.88;3.67;;;-0.20;99.90;;;;;;4971021;28;20089;-49
2022/04/03 04:15:08;;;;;;;10.95;4.47;;;-0.20;99.90;;;;;;4954013;28;20093;-53
2022/04/03 04:17:35;;;;;;;7.82;3.47;;;-0.30;99.90;;;;;;4982910;28;20133;-55
2022/04/03 04:20:07;;;;;;;11.68;4.03;;;-0.30;99.90;;;;;;4971516;28;20051;-55
2022/04/03 04:22:34;;;;;;;9.43;3.58;;;-0.30;99.90;;;;;;4974809;28;20089;-53
2022/04/03 04:25:01;;;;;;;15.60;4.85;;;-0.30;99.90;;;;;;4990534;28;20130;-54
2022/04/03 04:27:28;;;;;;;10.90;4.20;;;-0.20;99.90;;;;;;4985920;28;20057;-55
2022/04/03 04:29:54;;;;;;;10.10;3.45;;;-0.40;99.90;;;;;;4972811;28;20082;-53
2022/04/03 04:32:21;;;;;;;11.18;3.40;;;-0.40;99.90;;;;;;4965634;28;20467;-52
2022/04/03 04:34:51;;;;;;;9.45;3.83;;;-0.40;99.90;;;;;;4973026;28;20047;-52
2022/04/03 04:37:18;;;;;;;8.75;3.92;;;-0.50;99.90;;;;;;4971094;28;20118;-53
2022/04/03 04:39:45;;;;;;;9.48;3.67;;;-0.40;99.90;;;;;;4970511;28;20066;-55
2022/04/03 04:42:12;;;;;;;6.97;3.15;;;-0.50;99.90;;;;;;4973704;28;20054;-53
2022/04/03 04:44:39;;;;;;;10.07;4.10;;;-0.50;99.90;;;;;;4993965;28;20082;-55
2022/04/03 04:47:06;;;;;;;7.13;3.67;;;-0.40;99.90;;;;;;4972191;28;20269;-52
2022/04/03 04:49:33;;;;;;;8.95;3.47;;;-0.50;99.90;;;;;;4979756;28;20069;-55
2022/04/03 04:51:59;;;;;;;15.00;3.83;;;-0.50;99.90;;;;;;4987590;28;20101;-55
2022/04/03 04:54:27;;;;;;;11.13;3.53;;;-0.50;99.90;;;;;;4981286;28;20085;-56
2022/04/03 04:56:55;;;;;;;11.63;3.65;;;-0.60;99.90;;;;;;4970433;28;20047;-53
2022/04/03 04:59:22;;;;;;;11.25;4.35;;;-0.60;99.90;;;;;;4974076;28;20054;-55
2022/04/03 05:01:48;;;;;;;8.65;4.40;;;-0.60;99.90;;;;;;4970028;28;20134;-53
2022/04/03 05:04:15;;;;;;;13.95;4.55;;;-0.60;99.90;;;;;;4976227;28;20086;-56
2022/04/03 05:06:42;;;;;;;14.48;4.40;;;-0.60;99.90;;;;;;4988384;28;20089;-53
2022/04/03 05:09:09;;;;;;;13.35;4.07;;;-0.60;99.90;;;;;;4994185;28;20082;-55
2022/04/03 05:11:39;;;;;;;9.35;4.63;;;0.10;99.90;;;;;;4971865;28;20058;-52
2022/04/03 05:14:06;;;;;;;12.68;4.18;;;-0.30;99.90;;;;;;4968267;28;20161;-51
2022/04/03 05:16:33;;;;;;;13.23;5.03;;;-0.70;99.90;;;;;;4983387;28;20043;-53
2022/04/03 05:19:00;;;;;;;10.45;4.55;;;-0.70;99.90;;;;;;4973923;28;20053;-51
2022/04/03 05:21:26;;;;;;;8.90;4.85;;;-0.70;99.90;;;;;;4985763;28;20046;-51
2022/04/03 05:23:53;;;;;;;16.27;4.75;;;-0.70;99.90;;;;;;4991614;28;20078;-51
2022/04/03 05:26:20;;;;;;;8.05;4.05;;;-0.80;99.90;;;;;;4974848;28;20057;-56
2022/04/03 05:28:46;;;;;;;14.05;5.32;;;-0.80;99.90;;;;;;4973313;28;20481;-59
2022/04/03 05:31:13;;;;;;;9.25;4.28;;;-0.80;99.90;;;;;;4963947;28;20050;-54
2022/04/03 05:33:41;;;;;;;10.95;4.85;;;-0.80;99.90;;;;;;4974754;28;20121;-54
2022/04/03 05:36:08;;;;;;;13.38;5.70;;;-0.70;99.90;;;;;;4978790;28;20096;-53
2022/04/03 05:38:34;;;;;;;9.30;5.40;;;-0.70;99.90;;;;;;4985694;28;20100;-52
2022/04/03 05:41:01;;;;;;;12.88;4.78;;;-0.80;99.90;;;;;;4979981;28;20082;-54
2022/04/03 05:43:28;;;;;;;8.73;4.47;;;-0.80;99.90;;;;;;4969738;28;20134;-54
2022/04/03 05:45:54;;;;;;;10.98;4.10;;;-0.80;99.90;;;;;;4967657;28;20094;-55
2022/04/03 05:48:21;;;;;;;12.43;4.93;;;-0.70;99.90;;;;;;4989036;28;20042;-58
2022/04/03 05:50:50;;;;;;;8.25;4.47;;;-0.80;99.90;;;;;;4981773;28;20050;-55
2022/04/03 05:53:16;;;;;;;9.10;4.53;;;-0.70;99.90;;;;;;4969077;28;20097;-54
2022/04/03 05:55:43;;;;;;;13.07;4.78;;;-0.70;99.90;;;;;;4973557;28;20138;-57
2022/04/03 05:58:10;;;;;;;7.22;3.90;;;-0.70;99.90;;;;;;4988591;28;20046;-55
2022/04/03 06:00:37;;;;;;;8.93;4.78;;;-0.70;99.90;;;;;;4977146;28;20078;-53
2022/04/03 06:03:03;;;;;;;14.55;4.93;;;-0.60;99.90;;;;;;4968764;28;20125;-54
2022/04/03 06:05:32;;;;;;;11.23;4.47;;;-0.60;99.90;;;;;;4972798;28;20102;-54
2022/04/03 06:08:00;;;;;;;9.52;4.68;;;-0.60;99.90;;;;;;4985028;28;20081;-53
2022/04/03 06:10:28;;;;;;;19.60;4.10;;;-0.70;99.90;;;;;;4984224;28;20067;-53
2022/04/03 06:12:55;;;;;;;11.73;5.07;;;-0.70;99.90;;;;;;4970876;28;20142;-55
2022/04/03 06:15:22;;;;;;;11.23;5.22;;;-0.60;99.90;;;;;;4984069;28;20100;-53
2022/04/03 06:17:52;;;;;;;13.18;4.72;;;-0.60;99.90;;;;;;4976302;28;20059;-53
2022/04/03 06:20:21;;;;;;;11.27;6.38;;;-0.60;99.90;;;;;;4972720;28;20054;-55
2022/04/03 06:22:48;;;;;;;16.65;5.45;;;-1.00;99.90;;;;;;4979332;28;20137;-55
2022/04/03 06:25:15;;;;;;;16.20;5.53;;;-0.50;99.90;;;;;;4987063;28;20101;-53
2022/04/03 06:27:42;;;;;;;13.77;5.90;;;-0.50;99.90;;;;;;4976895;28;20129;-53
2022/04/03 06:30:09;;;;;;;13.35;4.93;;;-0.40;99.90;;;;;;4987060;28;20058;-53
2022/04/03 06:32:36;;;;;;;11.48;5.18;;;-0.40;99.90;;;;;;4977779;28;20113;-53
2022/04/03 06:35:04;;;;;;;10.27;4.65;;;-0.40;99.90;;;;;;4969417;28;20451;-57
2022/04/03 06:37:32;;;;;;;10.02;4.95;;;-0.40;99.90;;;;;;4987726;28;20060;-56
2022/04/03 06:39:59;;;;;;;14.43;5.13;;;-0.30;99.90;;;;;;4988940;28;20146;-55
2022/04/03 06:42:26;;;;;;;18.63;5.65;;;-0.10;99.90;;;;;;4982388;28;20046;-50
2022/04/03 06:44:53;;;;;;;11.30;6.70;;;-0.20;99.90;;;;;;4936243;28;20066;-53
2022/04/03 06:47:20;;;;;;;13.82;6.13;;;-0.10;99.90;;;;;;4979421;28;20062;-55
2022/04/03 06:49:48;;;;;;;12.98;5.22;;;-0.10;99.90;;;;;;4987170;28;20062;-54
2022/04/03 06:52:14;;;;;;;17.27;6.18;;;0.00;99.90;;;;;;4987239;28;20137;-54
2022/04/03 06:54:41;;;;;;;12.10;5.63;;;0.00;99.90;;;;;;4988726;28;20104;-56
2022/04/03 06:57:08;;;;;;;16.83;6.28;;;0.10;99.90;;;;;;4983818;28;20081;-53
2022/04/03 06:59:35;;;;;;;9.57;5.10;;;0.20;99.90;;;;;;4998002;28;20046;-52
2022/04/03 07:02:03;;;;;;;15.27;6.00;;;0.20;99.90;;;;;;4983315;28;20332;-60
2022/04/03 07:04:30;;;;;;;12.10;5.45;;;0.30;99.90;;;;;;4984632;28;20112;-54
2022/04/03 07:06:56;;;;;;;14.52;6.45;;;0.30;99.90;;;;;;4988211;28;20506;-55
2022/04/03 07:09:23;;;;;;;10.38;5.95;;;0.30;99.90;;;;;;4980978;28;20047;-55
2022/04/03 07:11:50;;;;;;;14.82;7.30;;;0.40;99.90;;;;;;4975434;28;20134;-55
2022/04/03 07:14:16;;;;;;;11.10;6.20;;;0.40;99.90;;;;;;4980621;28;20125;-53
2022/04/03 07:16:43;;;;;;;15.70;6.50;;;0.50;99.90;;;;;;4972444;28;20092;-54
2022/04/03 07:19:11;;;;;;;13.30;5.45;;;0.50;99.90;;;;;;4983151;28;20047;-52
2022/04/03 07:21:37;;;;;;;17.63;7.18;;;0.60;99.90;;;;;;4972450;28;20086;-54
2022/04/03 07:24:05;;;;;;;13.57;6.72;;;0.70;99.90;;;;;;4979532;28;20461;-56
2022/04/03 07:26:32;;;;;;;10.80;7.47;;;0.80;99.90;;;;;;4991090;28;20077;-55
2022/04/03 07:28:59;;;;;;;12.70;6.30;;;0.80;99.90;;;;;;4985220;28;20082;-56
2022/04/03 07:31:28;;;;;;;12.73;6.28;;;0.90;99.90;;;;;;4971926;28;20046;-56
2022/04/03 07:33:55;;;;;;;14.95;5.88;;;1.20;99.90;;;;;;4985778;28;20081;-61
2022/04/03 07:36:26;;;;;;;8.90;5.50;;;1.10;99.90;;;;;;4971658;28;20105;-55
2022/04/03 07:38:53;;;;;;;16.38;6.60;;;1.10;99.90;;;;;;4980851;28;20133;-55
2022/04/03 07:41:20;;;;;;;9.55;5.50;;;1.20;99.90;;;;;;4980477;28;20582;-56
2022/04/03 07:43:47;;;;;;;14.70;7.20;;;1.20;99.90;;;;;;4968565;28;20097;-56
2022/04/03 07:46:17;;;;;;;11.95;6.47;;;1.30;99.90;;;;;;4987307;28;20050;-57
2022/04/03 07:48:44;;;;;;;15.23;5.35;;;1.40;99.90;;;;;;4971041;28;20101;-55
2022/04/03 07:51:11;;;;;;;9.77;5.70;;;1.60;99.90;;;;;;4981835;28;20050;-56
2022/04/03 07:53:38;;;;;;;8.40;4.97;;;1.60;99.90;;;;;;4983982;28;20070;-55
2022/04/03 07:56:05;;;;;;;10.93;6.10;;;1.70;99.90;;;;;;4979555;28;20356;-56
2022/04/03 07:58:35;;;;;;;13.55;6.25;;;1.80;99.90;;;;;;4949223;28;20133;-54
2022/04/03 08:01:03;;;;;;;13.77;7.30;;;1.90;99.90;;;;;;4979492;28;20158;-56
2022/04/03 08:03:30;;;;;;;13.52;5.20;;;1.90;99.90;;;;;;4962852;28;20434;-55
2022/04/03 08:05:57;;;;;;;11.43;5.55;;;2.00;99.90;;;;;;4981131;28;20101;-56
2022/04/03 08:08:23;;;;;;;12.90;5.65;;;2.10;99.90;;;;;;4979658;28;20561;-54
2022/04/03 08:10:50;;;;;;;12.70;5.80;;;2.10;99.90;;;;;;4985768;28;20050;-56
2022/04/03 08:13:17;;;;;;;10.20;5.00;;;2.20;99.90;;;;;;4982058;28;20073;-53
2022/04/03 08:15:44;;;;;;;15.60;6.63;;;2.30;99.90;;;;;;4980586;28;20050;-55
2022/04/03 08:18:11;;;;;;;14.95;6.22;;;2.50;99.90;;;;;;4989771;28;20540;-54
2022/04/03 08:20:38;;;;;;;7.63;5.05;;;2.50;99.90;;;;;;4984740;28;20089;-55
2022/04/03 08:23:05;;;;;;;11.63;5.55;;;2.60;99.90;;;;;;4984617;28;20047;-56
2022/04/03 08:25:36;;;;;;;10.65;6.00;;;2.70;99.90;;;;;;4982320;28;20050;-55
2022/04/03 08:28:03;;;;;;;9.57;5.05;;;2.70;99.90;;;;;;4975331;28;20093;-54
2022/04/03 08:30:31;;;;;;;15.38;5.88;;;2.80;99.90;;;;;;4978438;28;20489;-56
2022/04/03 08:32:59;;;;;;;8.45;4.93;;;2.80;99.90;;;;;;4982683;28;20077;-54
2022/04/03 08:35:28;;;;;;;14.23;5.10;;;3.00;99.90;;;;;;4992372;28;20054;-56
2022/04/03 08:37:55;;;;;;;12.50;6.75;;;3.10;99.90;;;;;;4997814;28;20118;-55
2022/04/03 08:40:23;;;;;;;14.13;6.00;;;3.20;99.90;;;;;;4984279;28;20050;-57
2022/04/03 08:42:51;;;;;;;14.43;6.88;;;3.30;99.90;;;;;;4976119;28;20130;-50
2022/04/03 08:45:18;;;;;;;17.65;5.15;;;3.40;99.90;;;;;;4974124;28;20100;-58
2022/04/03 08:47:46;;;;;;;7.55;4.47;;;3.50;99.90;;;;;;4981564;28;20054;-57
2022/04/03 08:50:14;;;;;;;18.40;4.97;;;3.70;99.90;;;;;;4981092;28;20042;-53
2022/04/03 08:52:48;;;;;;;5.28;4.10;;;3.90;99.90;;;;;;4979111;28;20494;-54
2022/04/03 08:55:15;;;;;;;9.30;4.55;;;3.90;99.90;;;;;;4979521;28;20082;-56
2022/04/03 08:57:48;;;;;;;7.28;3.70;;;4.00;99.90;;;;;;4977926;28;20054;-56
2022/04/03 09:00:15;;;;;;;9.65;4.13;;;4.20;99.90;;;;;;4981111;28;20121;-55
2022/04/03 09:02:45;;;;;;;6.88;3.63;;;4.30;99.90;;;;;;4980658;28;20063;-58
2022/04/03 09:05:12;;;;;;;12.57;4.90;;;4.40;99.90;;;;;;4970652;28;20055;-56
2022/04/03 09:07:39;;;;;;;10.00;3.88;;;4.40;99.90;;;;;;4983717;28;20097;-56
2022/04/03 09:10:07;;;;;;;9.32;3.97;;;4.60;99.90;;;;;;4936522;28;20475;-56
2022/04/03 09:12:44;;;;;;;13.32;3.30;;;4.70;99.90;;;;;;4975557;28;20042;-59
2022/04/03 09:15:15;;;;;;;5.63;3.08;;;4.80;99.90;;;;;;4976014;28;20058;-56
2022/04/03 09:17:44;;;;;;;15.35;3.33;;;5.00;99.90;;;;;;4969201;28;20089;-56
2022/04/03 09:20:18;;;;;;;5.60;2.50;;;5.30;99.90;;;;;;4968817;28;20053;-54
2022/04/03 09:22:45;;;;;;;;;;;5.40;99.90;;;;;;4980794;28;20093;-51
2022/04/03 09:25:13;;;;;;;4.55;1.52;;;5.60;99.90;;;;;;4951874;28;19980;-55
2022/04/03 09:27:48;;;;;;;5.78;1.67;;;6.00;99.90;;;;;;4974114;28;20137;-54
2022/04/03 09:30:16;;;;;;;2.17;1.40;;;6.20;99.90;;;;;;4982167;28;20042;-55
2022/04/03 09:32:50;;;;;;;5.75;1.90;;;6.20;99.90;;;;;;4964816;28;20061;-55
2022/04/03 09:35:18;;;;;;;;;;;6.30;99.90;;;;;;4976790;28;20414;-52
2022/04/03 09:38:07;;;;;;;2.40;1.25;;;6.40;99.90;;;;;;4977311;28;20456;-54
2022/04/03 09:40:35;;;;;;;7.10;1.70;;;6.90;99.90;;;;;;4977175;28;20134;-54
2022/04/03 09:43:14;;;;;;;4.97;1.92;;;7.40;99.90;;;;;;4629356;28;10000457;-56
2022/04/03 09:45:48;;;;;;;4.63;1.73;;;7.60;99.90;;;;;;4968790;28;20662;-57
2022/04/03 09:48:22;;;;;;;2.50;1.55;;;7.50;99.90;;;;;;4969178;28;20137;-53
2022/04/03 09:51:06;;;;;;;5.93;2.83;;;7.90;99.90;;;;;;4973834;28;20137;-55
2022/04/03 09:53:45;;;;;;;3.35;1.70;;;8.30;97.60;;;;;;4973053;28;20054;-55
2022/04/03 09:56:34;;;;;;;6.15;2.00;;;8.50;98.40;;;;;;4970790;28;20157;-57
2022/04/03 09:59:03;;;;;;;4.80;1.52;;;8.80;99.90;;;;;;4978548;28;20426;-57
2022/04/03 10:01:38;;;;;;;6.20;1.20;;;9.00;97.60;;;;;;4975677;28;20054;-53
2022/04/03 10:04:15;;;;;;;3.97;1.65;;;8.70;97.60;;;;;;4967303;28;20057;-55
2022/04/03 10:06:42;;;;;;;2.55;1.60;;;8.40;98.70;;;;;;4949612;28;20055;-54
2022/04/03 10:09:14;;;;;;;5.70;2.05;;;8.10;98.10;;;;;;4971695;28;20523;-54
2022/04/03 10:11:42;;;;;;;6.82;1.58;;;8.00;98.50;;;;;;4967677;28;20133;-55
2022/04/03 10:14:09;;;;;;;5.30;1.50;;;8.00;98.70;;;;;;4957189;28;20101;-58
2022/04/03 10:16:36;;;;;;;8.02;3.15;;;8.10;98.50;;;;;;4972314;28;20098;-55
2022/04/03 10:19:03;;;;;;;3.60;1.42;;;8.00;96.50;;;;;;4955749;28;20046;-56
2022/04/03 10:21:39;;;;;;;3.17;1.58;;;7.60;97.20;;;;;;4972268;28;20493;-54
2022/04/03 10:24:18;;;;;;;7.43;1.50;;;7.50;96.40;;;;;;4956617;28;20047;-55
2022/04/03 10:27:15;;;;;;;2.70;1.17;;;7.50;95.90;;;;;;4971772;28;20069;-53
2022/04/03 10:29:43;;;;;;;10.73;1.13;;;7.30;92.00;;;;;;4973218;28;20050;-55
2022/04/03 10:32:27;;;;;;;2.00;1.10;;;7.30;95.50;;;;;;4968990;28;20174;-58
2022/04/03 10:35:09;;;;;;;1.25;0.82;;;7.20;91.50;;;;;;4965731;28;20046;-54
2022/04/03 10:37:37;;;;;;;5.70;2.03;;;7.20;93.50;;;;;;4980227;28;20098;-53
2022/04/03 10:40:17;;;;;;;2.38;1.08;;;7.30;95.30;;;;;;4974304;28;20105;-54
2022/04/03 10:43:01;;;;;;;3.53;1.55;;;7.30;95.30;;;;;;4973175;28;20064;-57
2022/04/03 10:45:35;;;;;;;1.95;1.30;;;7.30;94.50;;;;;;4981748;28;20073;-55
2022/04/03 10:48:23;;;;;;;4.15;1.60;;;7.40;95.80;;;;;;4967556;28;20736;-59
2022/04/03 10:51:05;;;;;;;7.30;1.98;;;7.50;92.40;;;;;;4975939;28;20046;-57
2022/04/03 10:53:39;;;;;;;5.97;1.35;;;7.60;92.90;;;;;;4978008;28;20142;-56
2022/04/03 10:56:19;;;;;;;1.70;1.00;;;7.60;94.30;;;;;;4975915;28;20132;-62
2022/04/03 10:58:47;;;;;;;9.77;1.67;;;7.60;93.20;;;;;;4979785;28;20494;-55
2022/04/03 11:01:29;;;;;;;3.40;1.55;;;7.60;94.50;;;;;;4959450;28;20713;-57
2022/04/03 11:04:08;;;;;;;4.47;1.30;;;7.50;92.00;;;;;;4965899;28;20505;-58
2022/04/03 11:06:38;;;;;;;5.82;3.63;;;7.60;93.10;;;;;;4974372;28;20054;-56
2022/04/03 11:09:22;;;;;;;2.45;1.20;;;7.60;93.90;;;;;;4947169;28;20108;-57
2022/04/03 11:12:02;;;;;;;6.65;1.67;;;7.60;92.10;;;;;;4961147;28;20381;-57
2022/04/03 11:14:52;;;;;;;1.02;0.80;;;7.60;93.70;;;;;;4960813;28;20112;-53
2022/04/03 11:17:40;;;;;;;2.25;1.38;;;7.70;90.20;;;;;;4978221;28;20085;-56
2022/04/03 11:20:07;;;;;;;6.38;1.70;;;7.60;91.80;;;;;;4970584;28;20070;-56
2022/04/03 11:22:34;;;;;;;5.22;1.83;;;7.50;92.00;;;;;;4977518;28;20125;-56
2022/04/03 11:25:00;;;;;;;6.28;1.48;;;7.50;93.30;;;;;;4935713;28;20117;-57
2022/04/03 11:27:27;;;;;;;5.35;1.70;;;7.50;94.20;;;;;;4974110;28;20086;-54
2022/04/03 11:29:54;;;;;;;2.88;1.10;;;7.60;93.50;;;;;;4949565;28;20051;-56
2022/04/03 11:32:21;;;;;;;2.95;1.25;;;7.70;90.10;;;;;;4975935;28;20544;-55
2022/04/03 11:35:01;;;;;;;4.57;1.67;;;7.90;91.80;;;;;;4965543;28;20141;-57
2022/04/03 11:37:28;;;;;;;2.90;1.00;;;7.90;90.00;;;;;;4974324;28;20136;-57
2022/04/03 11:39:55;;;;;;;3.83;1.40;;;8.00;92.80;;;;;;4980776;28;20097;-53
2022/04/03 11:42:22;;;;;;;4.15;1.90;;;8.10;92.30;;;;;;4951684;28;20214;-61
2022/04/03 11:44:52;;;;;;;5.22;1.63;;;8.10;89.80;;;;;;4975216;28;20129;-57
2022/04/03 11:47:21;;;;;;;4.13;1.70;;;8.30;90.90;;;;;;4980339;28;20510;-58
2022/04/03 11:50:03;;;;;;;5.30;1.63;;;8.40;92.50;;;;;;4984787;28;20146;-55
2022/04/03 11:52:30;;;;;;;6.22;1.13;;;8.50;86.60;;;;;;4973292;28;20735;-55
2022/04/03 11:54:57;;;;;;;2.65;1.58;;;8.50;89.00;;;;;;4965989;28;20059;-56
2022/04/03 11:57:24;;;;;;;1.95;1.30;;;8.60;91.50;;;;;;4974212;28;20046;-55
2022/04/03 11:59:53;;;;;;;6.93;1.30;;;8.60;90.60;;;;;;4961455;28;20123;-57
2022/04/03 12:02:20;;;;;;;2.88;1.38;;;8.60;90.90;;;;;;4964818;28;20049;-56
2022/04/03 12:04:47;;;;;;;2.88;0.90;;;8.50;90.40;;;;;;4969777;28;20260;-55
2022/04/03 12:07:14;;;;;;;2.90;0.85;;;8.40;90.50;;;;;;4969295;28;20090;-57
2022/04/03 12:09:42;;;;;;;15.23;1.55;;;8.70;82.10;;;;;;4977804;28;20046;-53
2022/04/03 12:12:10;;;;;;;2.47;0.90;;;8.90;84.00;;;;;;4974338;28;20062;-54
2022/04/03 12:14:40;;;;;;;3.25;0.82;;;8.90;84.90;;;;;;4961887;28;20145;-58
2022/04/03 12:17:11;;;;;;;6.80;0.90;;;8.90;86.50;;;;;;4981198;28;20132;-55
2022/04/03 12:19:39;;;;;;;1.75;1.00;;;8.90;84.30;;;;;;4975523;28;20046;-55
2022/04/03 12:22:08;;;;;;;3.05;1.20;;;9.00;88.10;;;;;;4972974;28;20094;-56
2022/04/03 12:24:36;;;;;;;2.30;1.35;;;9.20;87.90;;;;;;4973201;28;20090;-57
2022/04/03 12:27:15;;;;;;;5.38;1.40;;;9.30;88.70;;;;;;4976104;28;20069;-59
2022/04/03 12:29:47;;;;;;;4.38;1.30;;;9.40;78.70;;;;;;4981338;28;20150;-55
2022/04/03 12:32:17;;;;;;;1.88;1.25;;;9.40;83.60;;;;;;4970573;28;20067;-57
2022/04/03 12:34:48;;;;;;;2.40;0.73;;;9.40;80.00;;;;;;4978452;28;20126;-56
2022/04/03 12:37:16;;;;;;;5.20;1.40;;;9.50;71.60;;;;;;4973993;28;20057;-56
2022/04/03 12:39:52;;;;;;;3.25;1.10;;;9.30;81.20;;;;;;4977299;28;20051;-59
2022/04/03 12:42:20;;;;;;;3.03;1.10;;;9.20;76.60;;;;;;4975751;28;20061;-59
2022/04/03 12:44:59;;;;;;;2.70;0.80;;;9.20;83.20;;;;;;4974478;28;20502;-59
2022/04/03 12:47:36;;;;;;;3.65;1.10;;;9.20;84.00;;;;;;4974207;28;20050;-56
2022/04/03 12:50:03;;;;;;;1.23;0.90;;;9.20;76.90;;;;;;4977124;28;20061;-58
2022/04/03 12:52:48;;;;;;;2.60;1.27;;;9.20;85.20;;;;;;4975721;28;20055;-57
2022/04/03 12:55:22;;;;;;;5.93;0.85;;;9.20;82.80;;;;;;4974697;28;20112;-56
2022/04/03 13:00:44;;;;;;;6.00;1.38;;;9.10;83.60;;;;;;4979779;28;20112;-60